createdAt,value
2022-08-28T00:01:26.656Z,98552.97
2022-08-28T00:03:53.390Z,98549.16
2022-08-28T00:06:20.118Z,98547.59
2022-08-28T00:08:46.790Z,98557.75
2022-08-28T00:11:13.445Z,98556.75
2022-08-28T00:13:40.352Z,98552.91
2022-08-28T00:16:07.399Z,98560.91
2022-08-28T00:18:34.587Z,98565.69
2022-08-28T00:21:01.654Z,98564.41
2022-08-28T00:23:42.294Z,98564.69
2022-08-28T00:26:09.335Z,98569.78
2022-08-28T00:28:35.901Z,98573.28
2022-08-28T00:31:02.753Z,98574.78
2022-08-28T00:33:33.221Z,98569.31
2022-08-28T00:36:01.096Z,98568.75
2022-08-28T00:38:28.668Z,98564.66
2022-08-28T00:41:01.143Z,98564.19
2022-08-28T00:47:15.765Z,98565.22
2022-08-28T00:49:49.449Z,98561.97
2022-08-28T00:52:17.539Z,98558.47
2022-08-28T00:54:58.410Z,98559.38
2022-08-28T00:57:30.766Z,98566.78
2022-08-28T00:59:58.193Z,98558.31
2022-08-28T01:02:25.561Z,98563.09
2022-08-28T01:04:52.331Z,98561.75
2022-08-28T01:07:19.825Z,98552.44
2022-08-28T01:09:51.093Z,98555.88
2022-08-28T01:12:21.890Z,98554.88
2022-08-28T01:14:51.057Z,98548.66
2022-08-28T01:17:20.756Z,98552.59
2022-08-28T01:19:57.968Z,98546.06
2022-08-28T01:22:38.666Z,98562.59
2022-08-28T01:25:14.415Z,98555.81
2022-08-28T01:27:44.113Z,98553.38
2022-08-28T01:30:16.997Z,98558.84
2022-08-28T01:32:49.234Z,98558.75
2022-08-28T01:35:20.278Z,98559.59
2022-08-28T01:37:47.512Z,98567.41
2022-08-28T01:40:18.133Z,98563.44
2022-08-28T01:42:45.012Z,98566.25
2022-08-28T01:45:15.749Z,98561.16
2022-08-28T01:47:44.615Z,98562.25
2022-08-28T01:50:15.074Z,98558.31
2022-08-28T01:52:42.769Z,98554.81
2022-08-28T01:55:10.836Z,98562.53
2022-08-28T01:57:52.993Z,98562.91
2022-08-28T02:00:20.602Z,98563.44
2022-08-28T02:02:48.350Z,98570.44
2022-08-28T02:05:15.295Z,98572.59
2022-08-28T02:07:41.807Z,98571.81
2022-08-28T02:10:11.956Z,98574.72
2022-08-28T02:12:39.177Z,98571.00
2022-08-28T02:15:07.798Z,98568.09
2022-08-28T02:17:34.691Z,98562.50
2022-08-28T02:20:01.602Z,98568.59
2022-08-28T02:22:28.098Z,98563.84
2022-08-28T02:24:54.600Z,98572.66
2022-08-28T02:27:21.152Z,98574.72
2022-08-28T02:29:48.522Z,98573.38
2022-08-28T02:32:15.158Z,98574.22
2022-08-28T02:34:43.549Z,98574.56
2022-08-28T02:37:13.249Z,98576.16
2022-08-28T02:39:40.004Z,98576.41
2022-08-28T02:42:07.278Z,98582.22
2022-08-28T02:44:34.978Z,98575.91
2022-08-28T02:47:01.628Z,98575.09
2022-08-28T02:49:33.053Z,98570.09
2022-08-28T02:52:04.140Z,98570.13
2022-08-28T02:54:31.185Z,98566.16
2022-08-28T02:56:58.634Z,98565.34
2022-08-28T02:59:25.405Z,98570.38
2022-08-28T03:01:52.062Z,98566.94
2022-08-28T03:04:18.955Z,98572.19
2022-08-28T03:06:45.720Z,98570.28
2022-08-28T03:09:12.308Z,98571.94
2022-08-28T03:11:41.213Z,98567.94
2022-08-28T03:14:07.938Z,98564.97
2022-08-28T03:16:34.441Z,98566.63
2022-08-28T03:19:01.033Z,98566.63
2022-08-28T03:21:27.575Z,98562.34
2022-08-28T03:23:54.213Z,98567.16
2022-08-28T03:26:20.837Z,98565.00
2022-08-28T03:28:52.491Z,98566.63
2022-08-28T03:31:23.565Z,98570.59
2022-08-28T03:33:51.467Z,98569.47
2022-08-28T03:36:23.873Z,98571.63
2022-08-28T03:38:52.503Z,98574.03
2022-08-28T03:41:23.201Z,98574.38
2022-08-28T03:43:50.767Z,98579.25
2022-08-28T03:46:21.191Z,98575.31
2022-08-28T03:48:48.026Z,98578.19
2022-08-28T03:51:19.870Z,98580.84
2022-08-28T03:53:52.742Z,98584.88
2022-08-28T03:56:22.786Z,98592.81
2022-08-28T03:58:52.784Z,98586.97
2022-08-28T04:01:20.668Z,98591.47
2022-08-28T04:03:47.940Z,98591.38
2022-08-28T04:06:14.885Z,98591.88
2022-08-28T04:08:41.767Z,98587.44
2022-08-28T04:11:08.472Z,98590.13
2022-08-28T04:13:35.379Z,98595.47
2022-08-28T04:16:06.458Z,98599.56
2022-08-28T04:18:33.463Z,98602.44
2022-08-28T04:21:07.995Z,98599.19
2022-08-28T04:23:39.053Z,98595.41
2022-08-28T04:26:07.517Z,98597.41
2022-08-28T04:28:35.079Z,98599.19
2022-08-28T04:31:02.619Z,98592.84
2022-08-28T04:33:29.770Z,98597.97
2022-08-28T04:35:57.047Z,98598.28
2022-08-28T04:38:24.294Z,98603.66
2022-08-28T04:40:50.824Z,98608.09
2022-08-28T04:43:17.382Z,98610.19
2022-08-28T04:45:45.560Z,98612.25
2022-08-28T04:48:14.211Z,98605.94
2022-08-28T04:50:44.596Z,98618.38
2022-08-28T04:53:11.785Z,98607.41
2022-08-28T04:55:54.646Z,98611.59
2022-08-28T04:58:23.905Z,98615.56
2022-08-28T05:10:32.458Z,98618.91
2022-08-28T05:13:12.224Z,98617.25
2022-08-28T05:15:42.898Z,98623.06
2022-08-28T05:18:20.605Z,98627.03
2022-08-28T05:23:35.102Z,98632.09
2022-08-28T05:28:57.873Z,98629.94
2022-08-28T05:34:08.573Z,98627.78
2022-08-28T05:36:42.043Z,98634.59
2022-08-28T05:39:16.299Z,98635.34
2022-08-28T05:41:46.984Z,98637.59
2022-08-28T05:54:52.919Z,98633.47
2022-08-28T05:57:24.896Z,98639.56
2022-08-28T06:05:21.263Z,98643.63
2022-08-28T06:23:55.154Z,98647.66
2022-08-28T06:30:09.630Z,98644.41
2022-08-28T06:32:51.159Z,98646.94
2022-08-28T06:35:26.781Z,98653.16
2022-08-28T06:37:59.800Z,98655.28
2022-08-28T06:40:34.449Z,98649.72
2022-08-28T06:43:01.427Z,98657.25
2022-08-28T06:45:32.824Z,98662.78
2022-08-28T06:48:03.622Z,98662.75
2022-08-28T06:50:35.577Z,98655.66
2022-08-28T06:53:04.687Z,98651.78
2022-08-28T06:55:31.470Z,98658.84
2022-08-28T06:57:59.878Z,98659.75
2022-08-28T07:00:26.473Z,98656.78
2022-08-28T07:02:53.160Z,98658.56
2022-08-28T07:05:19.838Z,98662.72
2022-08-28T07:07:46.409Z,98662.63
2022-08-28T07:10:13.082Z,98658.19
2022-08-28T07:12:40.762Z,98662.34
2022-08-28T07:15:08.209Z,98667.91
2022-08-28T07:17:36.110Z,98664.25
2022-08-28T07:20:09.942Z,98670.91
2022-08-28T07:22:36.531Z,98669.28
2022-08-28T07:25:04.755Z,98675.06
2022-08-28T07:27:31.533Z,98670.84
2022-08-28T07:29:58.701Z,98670.75
2022-08-28T07:32:25.418Z,98678.13
2022-08-28T07:34:52.124Z,98677.28
2022-08-28T07:37:19.153Z,98681.91
2022-08-28T07:39:46.013Z,98676.19
2022-08-28T07:42:35.569Z,98676.38
2022-08-28T07:45:02.906Z,98682.13
2022-08-28T07:47:31.674Z,98684.31
2022-08-28T07:50:03.552Z,98686.13
2022-08-28T07:52:30.197Z,98687.91
2022-08-28T07:54:57.416Z,98690.00
2022-08-28T07:57:24.020Z,98690.38
2022-08-28T07:59:52.368Z,98686.88
2022-08-28T08:02:18.948Z,98683.44
2022-08-28T08:04:45.660Z,98685.13
2022-08-28T08:07:12.937Z,98688.97
2022-08-28T08:09:41.557Z,98680.88
2022-08-28T08:12:10.348Z,98680.16
2022-08-28T08:14:39.049Z,98680.94
2022-08-28T08:17:07.303Z,98669.13
2022-08-28T08:19:35.370Z,98671.88
2022-08-28T08:22:02.319Z,98667.22
2022-08-28T08:24:30.388Z,98671.16
2022-08-28T08:27:00.936Z,98673.81
2022-08-28T08:29:35.391Z,98676.28
2022-08-28T08:32:07.162Z,98669.66
2022-08-28T08:34:36.652Z,98676.63
2022-08-28T08:37:03.567Z,98678.19
2022-08-28T08:39:31.838Z,98685.19
2022-08-28T08:42:00.713Z,98682.56
2022-08-28T08:44:41.287Z,98691.31
2022-08-28T08:47:25.028Z,98690.25
2022-08-28T08:50:09.471Z,98698.47
2022-08-28T08:52:58.912Z,98697.88
2022-08-28T08:55:35.853Z,98692.78
2022-08-28T08:58:11.369Z,98698.13
2022-08-28T09:00:50.799Z,98697.19
2022-08-28T09:03:25.397Z,98691.69
2022-08-28T09:06:02.250Z,98690.63
2022-08-28T09:08:40.494Z,98696.22
2022-08-28T09:11:22.338Z,98696.28
2022-08-28T09:13:56.286Z,98692.00
2022-08-28T09:16:29.878Z,98695.97
2022-08-28T09:18:58.214Z,98693.72
2022-08-28T09:21:33.646Z,98696.81
2022-08-28T09:24:19.360Z,98701.38
2022-08-28T09:26:57.639Z,98699.31
2022-08-28T09:29:31.717Z,98692.50
2022-08-28T09:31:58.906Z,98702.88
2022-08-28T09:34:36.703Z,98702.22
2022-08-28T09:37:08.480Z,98694.63
2022-08-28T09:39:38.077Z,98698.91
2022-08-28T09:42:32.934Z,98703.63
2022-08-28T09:45:09.457Z,98699.06
2022-08-28T09:47:46.194Z,98695.66
2022-08-28T09:50:32.644Z,98703.03
2022-08-28T09:53:14.321Z,98694.06
2022-08-28T09:55:55.400Z,98699.78
2022-08-28T09:58:23.576Z,98690.50
2022-08-28T10:01:01.974Z,98684.78
2022-08-28T10:03:36.981Z,98688.63
2022-08-28T10:06:11.093Z,98695.91
2022-08-28T10:09:01.570Z,98690.59
2022-08-28T10:11:42.587Z,98697.31
2022-08-28T10:14:42.061Z,98704.50
2022-08-28T10:17:23.839Z,98700.59
2022-08-28T10:19:59.562Z,98698.69
2022-08-28T10:22:29.158Z,98692.97
2022-08-28T10:25:08.972Z,98698.25
2022-08-28T10:27:44.849Z,98696.38
2022-08-28T10:30:22.930Z,98694.34
2022-08-28T10:33:23.767Z,98702.63
2022-08-28T10:36:02.737Z,98699.63
2022-08-28T10:38:40.322Z,98695.31
2022-08-28T10:41:27.272Z,98697.19
2022-08-28T10:43:57.269Z,98695.72
2022-08-28T10:46:33.788Z,98700.72
2022-08-28T10:49:44.260Z,98698.91
2022-08-28T10:52:23.153Z,98690.91
2022-08-28T10:54:57.660Z,98698.81
2022-08-28T10:57:40.100Z,98695.16
2022-08-28T11:00:12.507Z,98695.09
2022-08-28T11:02:44.422Z,98690.84
2022-08-28T11:05:11.924Z,98688.94
2022-08-28T11:07:47.896Z,98683.47
2022-08-28T11:10:20.141Z,98691.91
2022-08-28T11:12:48.314Z,98698.09
2022-08-28T11:15:34.194Z,98692.03
2022-08-28T11:18:20.936Z,98703.91
2022-08-28T11:21:16.718Z,98706.81
2022-08-28T11:23:52.790Z,98704.31
2022-08-28T11:26:48.841Z,98710.38
2022-08-28T11:30:03.627Z,98707.06
2022-08-28T11:32:51.616Z,98714.00
2022-08-28T11:35:30.234Z,98711.47
2022-08-28T11:37:58.537Z,98711.94
2022-08-28T11:40:28.197Z,98707.41
2022-08-28T11:43:16.972Z,98700.16
2022-08-28T11:45:46.537Z,98697.72
2022-08-28T11:48:25.911Z,98706.75
2022-08-28T11:51:03.668Z,98709.28
2022-08-28T11:54:07.010Z,98701.91
2022-08-28T11:57:11.633Z,98702.09
2022-08-28T11:59:38.206Z,98704.09
2022-08-28T12:02:49.624Z,98705.81
2022-08-28T12:05:16.319Z,98704.28
2022-08-28T12:07:45.055Z,98702.44
2022-08-28T12:10:20.907Z,98706.09
2022-08-28T12:12:52.833Z,98701.63
2022-08-28T12:15:28.664Z,98700.06
2022-08-28T12:17:58.470Z,98706.59
2022-08-28T12:20:29.513Z,98691.16
2022-08-28T12:22:59.739Z,98694.84
2022-08-28T12:25:32.366Z,98692.56
2022-08-28T12:28:28.724Z,98693.50
2022-08-28T12:31:11.687Z,98691.16
2022-08-28T12:34:00.744Z,98685.09
2022-08-28T12:36:28.803Z,98683.38
2022-08-28T12:38:58.233Z,98678.22
2022-08-28T12:41:25.593Z,98684.25
2022-08-28T12:43:58.205Z,98682.31
2022-08-28T12:46:37.705Z,98680.41
2022-08-28T12:49:25.148Z,98676.50
2022-08-28T12:52:06.618Z,98674.06
2022-08-28T12:54:33.324Z,98668.81
2022-08-28T12:57:00.069Z,98663.53
2022-08-28T12:59:36.688Z,98668.28
2022-08-28T13:02:12.498Z,98664.59
2022-08-28T13:04:56.055Z,98662.06
2022-08-28T13:07:35.419Z,98654.53
2022-08-28T13:10:19.237Z,98656.81
2022-08-28T13:12:56.086Z,98662.00
2022-08-28T13:16:01.416Z,98661.06
2022-08-28T13:18:56.477Z,98656.25
2022-08-28T13:21:33.858Z,98652.16
2022-08-28T13:24:28.151Z,98653.50
2022-08-28T13:27:50.521Z,98656.78
2022-08-28T13:39:36.881Z,98649.03
2022-08-28T13:48:49.066Z,98657.69
2022-08-28T13:51:20.793Z,98656.72
2022-08-28T14:08:00.397Z,98658.28
2022-08-28T14:18:47.703Z,98662.88
2022-08-28T14:25:52.434Z,98665.97
2022-08-28T14:28:19.402Z,98663.13
2022-08-28T14:30:48.658Z,98664.59
2022-08-28T14:33:18.684Z,98660.03
2022-08-28T14:35:50.132Z,98659.72
2022-08-28T14:38:17.181Z,98660.38
2022-08-28T14:40:44.850Z,98658.00
2022-08-28T14:43:13.715Z,98655.69
2022-08-28T14:45:50.248Z,98658.91
2022-08-28T14:48:19.010Z,98660.41
2022-08-28T14:50:48.058Z,98656.75
2022-08-28T14:53:15.947Z,98658.75
2022-08-28T14:55:48.621Z,98649.44
2022-08-28T14:58:17.849Z,98656.19
2022-08-28T15:00:50.101Z,98655.22
2022-08-28T15:03:18.703Z,98650.28
2022-08-28T15:05:46.074Z,98643.69
2022-08-28T15:08:16.882Z,98639.56
2022-08-28T15:10:44.344Z,98645.56
2022-08-28T15:13:11.544Z,98644.72
2022-08-28T15:15:41.215Z,98643.25
2022-08-28T15:18:10.266Z,98641.16
2022-08-28T15:20:46.895Z,98641.88
2022-08-28T15:23:15.349Z,98642.53
2022-08-28T15:25:42.383Z,98635.03
2022-08-28T15:28:09.830Z,98638.56
2022-08-28T15:30:37.606Z,98638.44
2022-08-28T15:33:04.950Z,98631.69
2022-08-28T15:35:33.890Z,98634.13
2022-08-28T15:38:00.584Z,98632.34
2022-08-28T15:40:45.861Z,98625.69
2022-08-28T15:43:12.656Z,98629.91
2022-08-28T15:45:41.233Z,98630.09
2022-08-28T15:48:10.829Z,98633.97
2022-08-28T15:50:38.571Z,98625.16
2022-08-28T15:53:06.695Z,98622.28
2022-08-28T15:55:36.703Z,98629.47
2022-08-28T15:58:04.655Z,98624.88
2022-08-28T16:00:40.755Z,98628.69
2022-08-28T16:03:07.406Z,98624.13
2022-08-28T16:05:40.616Z,98624.19
2022-08-28T16:08:51.749Z,98625.47
2022-08-28T16:11:59.290Z,98628.53
2022-08-28T16:14:47.378Z,98635.28
2022-08-28T16:17:45.009Z,98641.94
2022-08-28T16:20:19.529Z,98638.69
2022-08-28T16:22:54.052Z,98631.41
2022-08-28T16:25:28.370Z,98631.75
2022-08-28T16:28:16.232Z,98631.50
2022-08-28T16:30:49.728Z,98637.47
2022-08-28T16:33:22.195Z,98629.75
2022-08-28T16:38:59.731Z,98624.75
2022-08-28T16:41:32.315Z,98626.16
2022-08-28T16:43:59.327Z,98631.31
2022-08-28T16:46:44.390Z,98632.44
2022-08-28T16:49:41.694Z,98626.94
2022-08-28T16:52:08.332Z,98628.34
2022-08-28T16:55:17.105Z,98623.03
2022-08-28T16:57:44.077Z,98627.88
2022-08-28T17:00:15.533Z,98619.38
2022-08-28T17:02:43.683Z,98616.56
2022-08-28T17:05:15.321Z,98623.19
2022-08-28T17:08:02.191Z,98623.97
2022-08-28T17:10:29.114Z,98623.31
2022-08-28T17:12:56.669Z,98623.31
2022-08-28T17:15:29.193Z,98629.00
2022-08-28T17:17:56.489Z,98625.22
2022-08-28T17:20:41.746Z,98625.72
2022-08-28T17:23:08.384Z,98628.69
2022-08-28T17:25:35.007Z,98627.63
2022-08-28T17:28:04.473Z,98625.59
2022-08-28T17:30:31.028Z,98619.31
2022-08-28T17:33:04.678Z,98631.88
2022-08-28T17:35:31.748Z,98632.19
2022-08-28T17:38:08.336Z,98636.09
2022-08-28T17:40:35.101Z,98642.72
2022-08-28T17:43:02.864Z,98642.72
2022-08-28T17:45:29.863Z,98639.88
2022-08-28T17:48:08.782Z,98643.97
2022-08-28T17:51:09.168Z,98636.75
2022-08-28T18:09:38.855Z,98655.56
2022-08-28T18:12:55.665Z,98652.88
2022-08-28T18:23:35.638Z,98667.81
2022-08-28T18:27:02.409Z,98672.63
2022-08-28T18:29:49.384Z,98672.16
2022-08-28T18:32:58.402Z,98678.38
2022-08-28T18:42:27.681Z,98684.63
2022-08-28T18:45:43.451Z,98690.03
2022-08-28T18:48:10.228Z,98684.84
2022-08-28T18:51:03.406Z,98693.25
2022-08-28T18:53:53.436Z,98697.38
2022-08-28T18:56:24.335Z,98699.03
2022-08-28T18:58:57.100Z,98700.28
2022-08-28T19:01:24.418Z,98709.63
2022-08-28T19:03:51.114Z,98710.53
2022-08-28T19:06:17.905Z,98713.63
2022-08-28T19:08:45.905Z,98716.81
2022-08-28T19:11:14.037Z,98719.31
2022-08-28T19:13:42.009Z,98715.88
2022-08-28T19:16:09.649Z,98725.19
2022-08-28T19:18:36.417Z,98719.28
2022-08-28T19:21:10.222Z,98728.69
2022-08-28T19:23:42.109Z,98724.16
2022-08-28T19:26:22.112Z,98732.22
2022-08-28T19:28:50.558Z,98734.47
2022-08-28T19:31:17.949Z,98737.63
2022-08-28T19:33:46.480Z,98736.16
2022-08-28T19:36:13.929Z,98735.03
2022-08-28T19:38:41.761Z,98736.72
2022-08-28T19:41:10.244Z,98738.19
2022-08-28T19:43:42.870Z,98745.66
2022-08-28T19:46:19.541Z,98751.44
2022-08-28T19:48:50.569Z,98753.50
2022-08-28T19:51:23.434Z,98751.81
2022-08-28T19:53:58.469Z,98754.50
2022-08-28T19:56:28.143Z,98761.19
2022-08-28T19:58:58.903Z,98769.06
2022-08-28T20:01:30.416Z,98774.16
2022-08-28T20:03:58.585Z,98780.63
2022-08-28T20:06:25.625Z,98783.19
2022-08-28T20:08:52.238Z,98792.09
2022-08-28T20:11:24.812Z,98787.91
2022-08-28T20:13:56.590Z,98797.69
2022-08-28T20:16:27.576Z,98793.03
2022-08-28T20:18:55.716Z,98801.41
2022-08-28T20:21:36.741Z,98801.09
2022-08-28T20:24:07.329Z,98800.06
2022-08-28T20:26:34.020Z,98797.97
2022-08-28T20:29:00.669Z,98798.53
2022-08-28T20:31:27.462Z,98803.25
2022-08-28T20:33:54.314Z,98808.06
2022-08-28T20:36:21.537Z,98804.66
2022-08-28T20:38:48.284Z,98809.97
2022-08-28T20:41:18.235Z,98811.03
2022-08-28T20:43:46.317Z,98804.66
2022-08-28T20:46:16.596Z,98808.81
2022-08-28T20:48:44.041Z,98802.34
2022-08-28T20:51:11.382Z,98809.09
2022-08-28T20:53:38.719Z,98803.41
2022-08-28T20:56:08.439Z,98810.91
2022-08-28T20:58:36.012Z,98814.94
2022-08-28T21:01:02.850Z,98810.47
2022-08-28T21:03:32.549Z,98810.47
2022-08-28T21:05:59.369Z,98813.66
2022-08-28T21:08:26.140Z,98807.97
2022-08-28T21:10:52.827Z,98805.47
2022-08-28T21:13:19.702Z,98813.16
2022-08-28T21:15:46.425Z,98812.59
2022-08-28T21:18:13.865Z,98816.97
2022-08-28T21:20:40.937Z,98824.19
2022-08-28T21:23:08.839Z,98830.47
2022-08-28T21:25:38.444Z,98834.84
2022-08-28T21:28:06.725Z,98837.53
2022-08-28T21:30:34.273Z,98834.41
2022-08-28T21:33:01.146Z,98832.84
2022-08-28T21:35:27.802Z,98839.41
2022-08-28T21:37:54.471Z,98840.22
2022-08-28T21:40:21.178Z,98838.38
2022-08-28T21:42:50.232Z,98844.13
2022-08-28T21:45:16.878Z,98840.34
2022-08-28T21:47:43.849Z,98842.75
2022-08-28T21:50:10.883Z,98845.38
2022-08-28T21:52:37.586Z,98844.47
2022-08-28T21:55:09.396Z,98838.94
2022-08-28T21:57:36.510Z,98838.78
2022-08-28T22:00:07.431Z,98842.72
2022-08-28T22:02:34.574Z,98843.59
2022-08-28T22:05:01.298Z,98847.34
2022-08-28T22:07:27.976Z,98835.72
2022-08-28T22:09:54.681Z,98837.88
2022-08-28T22:12:21.452Z,98841.59
2022-08-28T22:14:48.290Z,98838.66
2022-08-28T22:17:15.322Z,98840.09
2022-08-28T22:19:42.168Z,98839.44
2022-08-28T22:22:31.542Z,98843.97
2022-08-28T22:24:58.639Z,98840.47
2022-08-28T22:27:25.339Z,98849.47
2022-08-28T22:29:51.896Z,98856.88
2022-08-28T22:32:18.707Z,98860.38
2022-08-28T22:34:46.174Z,98859.63
2022-08-28T22:37:13.633Z,98865.47
2022-08-28T22:39:41.700Z,98868.44
2022-08-28T22:42:09.796Z,98868.75
2022-08-28T22:44:37.351Z,98870.13
2022-08-28T22:47:04.900Z,98864.63
2022-08-28T22:49:31.701Z,98875.00
2022-08-28T22:51:58.404Z,98882.50
2022-08-28T22:54:26.135Z,98884.63
2022-08-28T22:56:52.769Z,98886.78
2022-08-28T22:59:19.455Z,98892.06
2022-08-28T23:01:46.385Z,98883.59
2022-08-28T23:04:13.048Z,98885.50
2022-08-28T23:06:40.265Z,98879.94
2022-08-28T23:09:08.361Z,98886.53
2022-08-28T23:11:36.422Z,98878.34
2022-08-28T23:14:05.440Z,98875.66
2022-08-28T23:16:32.465Z,98876.19
2022-08-28T23:19:07.874Z,98878.25
2022-08-28T23:21:40.964Z,98873.19
2022-08-28T23:24:13.063Z,98873.97
2022-08-28T23:26:39.739Z,98868.16
2022-08-28T23:29:06.382Z,98869.50
2022-08-28T23:31:33.049Z,98868.69
2022-08-28T23:33:59.801Z,98869.50
2022-08-28T23:36:26.532Z,98870.53
2022-08-28T23:38:53.436Z,98870.25
2022-08-28T23:41:20.065Z,98876.13
2022-08-28T23:43:47.172Z,98877.81
2022-08-28T23:46:16.281Z,98879.16
2022-08-28T23:48:43.425Z,98888.44
2022-08-28T23:51:13.845Z,98886.59
2022-08-28T23:53:42.897Z,98880.50
2022-08-28T23:56:09.728Z,98871.22
2022-08-28T23:58:36.409Z,98867.78
